createdAt,value
2019-01-27T00:01:44.159Z,94590.67
2019-01-27T00:04:15.568Z,94585.38
2019-01-27T00:06:46.781Z,94573.50
2019-01-27T00:09:17.934Z,94572.26
2019-01-27T00:11:49.276Z,94563.27
2019-01-27T00:14:20.458Z,94556.41
2019-01-27T00:16:51.612Z,94552.19
2019-01-27T00:19:22.766Z,94544.94
2019-01-27T00:21:55.218Z,94537.31
2019-01-27T00:24:26.521Z,94531.41
2019-01-27T00:26:57.719Z,94528.70
2019-01-27T00:29:28.867Z,94518.80
2019-01-27T00:32:00.107Z,94511.78
2019-01-27T00:34:31.258Z,94511.91
2019-01-27T00:37:02.501Z,94505.76
2019-01-27T00:39:33.622Z,94507.93
2019-01-27T00:42:05.087Z,94500.93
2019-01-27T00:44:36.481Z,94491.03
2019-01-27T00:47:07.925Z,94489.63
2019-01-27T00:49:38.906Z,94490.89
2019-01-27T00:52:11.035Z,94482.68
2019-01-27T00:54:42.097Z,94482.63
2019-01-27T00:57:13.166Z,94473.97
2019-01-27T00:59:44.234Z,94471.67
2019-01-27T01:02:15.630Z,94480.92
2019-01-27T01:04:47.007Z,94482.41
2019-01-27T01:07:18.214Z,94475.80
2019-01-27T01:09:49.291Z,94475.08
2019-01-27T01:12:20.426Z,94471.03
2019-01-27T01:14:51.616Z,94469.31
2019-01-27T01:17:22.946Z,94466.61
2019-01-27T01:19:54.180Z,94468.91
2019-01-27T01:22:25.336Z,94463.38
2019-01-27T01:24:56.462Z,94458.77
2019-01-27T01:27:27.603Z,94460.33
2019-01-27T01:29:58.731Z,94456.73
2019-01-27T01:32:29.877Z,94454.44
2019-01-27T01:35:00.967Z,94456.27
2019-01-27T01:37:32.123Z,94440.15
2019-01-27T01:40:03.236Z,94442.63
2019-01-27T01:42:34.284Z,94440.76
2019-01-27T01:45:09.305Z,94437.57
2019-01-27T01:47:40.507Z,94428.25
2019-01-27T01:50:11.605Z,94425.88
2019-01-27T01:52:42.919Z,94417.97
2019-01-27T01:55:14.866Z,94414.09
2019-01-27T01:57:45.993Z,94414.58
2019-01-27T02:00:19.332Z,94408.09
2019-01-27T02:02:50.466Z,94401.19
2019-01-27T02:05:21.867Z,94398.04
2019-01-27T02:07:52.920Z,94395.14
2019-01-27T02:10:24.343Z,94398.17
2019-01-27T02:12:55.558Z,94384.72
2019-01-27T02:16:07.679Z,94382.47
2019-01-27T02:18:39.849Z,94385.80
2019-01-27T02:21:11.265Z,94375.75
2019-01-27T02:23:42.338Z,94370.39
2019-01-27T02:26:13.023Z,94364.58
2019-01-27T02:28:44.347Z,94354.59
2019-01-27T02:31:16.561Z,94354.52
2019-01-27T02:33:47.710Z,94349.24
2019-01-27T02:36:18.872Z,94347.03
2019-01-27T02:38:49.932Z,94339.53
2019-01-27T02:41:21.090Z,94332.42
2019-01-27T02:43:52.143Z,94327.75
2019-01-27T02:46:23.233Z,94320.40
2019-01-27T02:48:54.301Z,94320.20
2019-01-27T02:51:25.411Z,94305.67
2019-01-27T02:53:56.489Z,94301.23
2019-01-27T02:56:27.616Z,94303.58
2019-01-27T02:58:58.680Z,94297.64
2019-01-27T03:01:29.828Z,94294.85
2019-01-27T03:04:01.047Z,94289.20
2019-01-27T03:06:37.616Z,94289.20
2019-01-27T03:09:13.829Z,94269.34
2019-01-27T03:11:50.073Z,94263.95
2019-01-27T03:14:21.907Z,94260.35
2019-01-27T03:16:54.378Z,94264.31
2019-01-27T03:19:25.514Z,94260.11
2019-01-27T03:21:56.833Z,94260.47
2019-01-27T03:24:27.989Z,94259.98
2019-01-27T03:26:59.091Z,94250.47
2019-01-27T03:29:30.161Z,94247.34
2019-01-27T03:32:01.295Z,94239.11
2019-01-27T03:34:32.450Z,94233.75
2019-01-27T03:37:03.726Z,94229.72
2019-01-27T03:39:34.846Z,94228.33
2019-01-27T03:42:06.482Z,94220.30
2019-01-27T03:44:37.608Z,94210.97
2019-01-27T03:47:08.777Z,94199.61
2019-01-27T03:49:39.925Z,94202.85
2019-01-27T03:52:11.119Z,94197.95
2019-01-27T03:54:42.277Z,94188.12
2019-01-27T03:57:13.388Z,94186.22
2019-01-27T03:59:44.534Z,94173.87
2019-01-27T04:02:15.827Z,94173.06
2019-01-27T04:04:46.962Z,94168.77
2019-01-27T04:07:18.176Z,94161.48
2019-01-27T04:09:49.207Z,94154.08
2019-01-27T04:12:20.319Z,94156.38
2019-01-27T04:14:51.470Z,94152.58
2019-01-27T04:17:22.659Z,94150.20
2019-01-27T04:19:53.753Z,94136.21
2019-01-27T04:22:24.822Z,94137.98
2019-01-27T04:24:56.146Z,94140.64
2019-01-27T04:27:27.189Z,94126.61
2019-01-27T04:29:58.371Z,94121.44
2019-01-27T04:32:29.503Z,94130.41
2019-01-27T04:35:00.582Z,94123.75
2019-01-27T04:37:31.694Z,94125.75
2019-01-27T04:40:02.802Z,94119.57
2019-01-27T04:42:33.874Z,94121.17
2019-01-27T04:45:06.643Z,94113.16
2019-01-27T04:47:37.759Z,94122.32
2019-01-27T04:50:11.585Z,94109.00
2019-01-27T04:52:42.957Z,94111.05
2019-01-27T04:55:14.804Z,94107.59
2019-01-27T04:57:46.037Z,94097.23
2019-01-27T05:00:20.117Z,94102.88
2019-01-27T05:03:09.400Z,94092.61
2019-01-27T05:05:40.910Z,94087.64
2019-01-27T05:08:11.978Z,94098.81
2019-01-27T05:10:43.052Z,94088.38
2019-01-27T05:13:14.180Z,94082.38
2019-01-27T05:15:45.233Z,94082.02
2019-01-27T05:18:16.367Z,94078.42
2019-01-27T05:20:47.427Z,94077.83
2019-01-27T05:23:18.601Z,94074.44
2019-01-27T05:25:49.619Z,94072.72
2019-01-27T05:28:20.634Z,94072.97
2019-01-27T05:30:51.710Z,94072.88
2019-01-27T05:33:22.742Z,94065.88
2019-01-27T05:35:53.809Z,94064.89
2019-01-27T05:38:24.895Z,94073.02
2019-01-27T05:40:56.835Z,94061.81
2019-01-27T05:43:27.986Z,94063.00
2019-01-27T05:45:59.146Z,94064.08
2019-01-27T05:48:30.182Z,94051.39
2019-01-27T05:51:01.213Z,94045.27
2019-01-27T05:53:32.454Z,94042.36
2019-01-27T05:56:03.599Z,94046.09
2019-01-27T05:58:34.594Z,94035.58
2019-01-27T06:01:05.804Z,94033.95
2019-01-27T06:03:36.773Z,94037.70
2019-01-27T06:06:07.907Z,94039.47
2019-01-27T06:08:38.932Z,94030.34
2019-01-27T06:11:10.080Z,94031.94
2019-01-27T06:13:41.225Z,94025.00
2019-01-27T06:16:12.271Z,94013.92
2019-01-27T06:18:43.409Z,94009.42
2019-01-27T06:21:14.474Z,94006.50
2019-01-27T06:23:45.579Z,94002.67
2019-01-27T06:26:16.733Z,93996.16
2019-01-27T06:28:47.789Z,93997.92
2019-01-27T06:31:18.933Z,93989.41
2019-01-27T06:33:55.106Z,93992.22
2019-01-27T06:36:26.341Z,93987.57
2019-01-27T06:38:57.534Z,93988.83
2019-01-27T06:41:28.640Z,93979.08
2019-01-27T06:43:59.632Z,93983.86
2019-01-27T06:46:30.800Z,93979.21
2019-01-27T06:49:01.820Z,93972.82
2019-01-27T06:51:32.990Z,93967.41
2019-01-27T06:54:04.871Z,93964.35
2019-01-27T06:56:36.025Z,93959.67
2019-01-27T06:59:25.138Z,93960.22
2019-01-27T07:02:06.601Z,93958.55
2019-01-27T07:04:43.353Z,93962.02
2019-01-27T07:07:45.727Z,93962.83
2019-01-27T07:10:45.608Z,93960.05
2019-01-27T07:13:41.680Z,93944.53
2019-01-27T07:16:43.898Z,93948.97
2019-01-27T07:19:35.387Z,93938.18
2019-01-27T07:22:24.846Z,93926.24
2019-01-27T07:25:16.266Z,93929.44
2019-01-27T07:28:09.322Z,93923.47
2019-01-27T07:31:11.913Z,93921.45
2019-01-27T07:34:11.048Z,93913.09
2019-01-27T07:37:13.630Z,93909.31
2019-01-27T07:40:02.518Z,93908.92
2019-01-27T07:43:02.485Z,93909.86
2019-01-27T07:45:41.290Z,93905.97
2019-01-27T07:48:49.582Z,93900.73
2019-01-27T07:51:30.778Z,93888.17
2019-01-27T07:54:19.408Z,93880.41
2019-01-27T07:57:02.452Z,93891.31
2019-01-27T07:59:52.533Z,93885.14
2019-01-27T08:02:41.424Z,93882.27
2019-01-27T08:05:30.299Z,93886.05
2019-01-27T08:08:23.486Z,93873.78
2019-01-27T08:11:05.214Z,93878.49
2019-01-27T08:13:46.192Z,93878.41
2019-01-27T08:16:25.219Z,93881.67
2019-01-27T08:19:08.231Z,93891.39
2019-01-27T08:22:01.148Z,93889.23
2019-01-27T08:24:40.628Z,93880.63
2019-01-27T08:27:39.782Z,93877.38
2019-01-27T08:30:39.031Z,93874.05
2019-01-27T08:33:32.222Z,93873.96
2019-01-27T08:36:16.537Z,93883.95
2019-01-27T08:39:21.942Z,93868.22
2019-01-27T08:42:20.971Z,93864.81
2019-01-27T08:45:12.315Z,93853.52
2019-01-27T08:47:43.471Z,93856.92
2019-01-27T08:50:17.099Z,93852.95
2019-01-27T08:52:48.138Z,93850.32
2019-01-27T08:55:19.488Z,93850.34
2019-01-27T08:57:50.540Z,93850.70
2019-01-27T09:00:36.667Z,93845.52
2019-01-27T09:03:16.280Z,93849.08
2019-01-27T09:06:12.196Z,93849.56
2019-01-27T09:09:05.145Z,93832.04
2019-01-27T09:12:07.604Z,93841.00
2019-01-27T09:14:50.292Z,93838.58
2019-01-27T09:17:43.458Z,93831.85
2019-01-27T09:20:32.215Z,93826.23
2019-01-27T09:23:25.543Z,93813.84
2019-01-27T09:26:17.302Z,93815.30
2019-01-27T09:29:00.116Z,93816.45
2019-01-27T09:31:39.444Z,93810.03
2019-01-27T09:34:44.763Z,93806.95
2019-01-27T09:37:33.859Z,93809.84
2019-01-27T09:40:24.663Z,93794.57
2019-01-27T09:43:20.716Z,93788.92
2019-01-27T09:46:22.903Z,93801.80
2019-01-27T09:49:18.921Z,93807.91
2019-01-27T09:51:59.559Z,93809.19
2019-01-27T09:55:07.942Z,93799.02
2019-01-27T09:57:56.929Z,93802.06
2019-01-27T10:00:39.026Z,93799.57
2019-01-27T10:03:38.141Z,93804.69
2019-01-27T10:06:27.430Z,93805.52
2019-01-27T10:09:15.025Z,93800.00
2019-01-27T10:11:55.390Z,93804.23
2019-01-27T10:14:57.797Z,93800.67
2019-01-27T10:17:46.325Z,93792.10
2019-01-27T10:20:39.624Z,93789.84
2019-01-27T10:23:22.995Z,93786.63
2019-01-27T10:26:02.063Z,93776.64
2019-01-27T10:28:45.884Z,93774.75
2019-01-27T10:31:35.022Z,93757.09
2019-01-27T10:34:21.744Z,93758.85
2019-01-27T10:37:12.236Z,93739.20
2019-01-27T10:39:56.814Z,93728.00
2019-01-27T10:42:34.775Z,93718.19
2019-01-27T10:45:22.244Z,93712.25
2019-01-27T10:48:09.766Z,93701.25
2019-01-27T10:50:48.806Z,93706.02
2019-01-27T10:53:34.844Z,93708.88
2019-01-27T10:56:21.890Z,93688.15
2019-01-27T10:59:00.422Z,93689.23
2019-01-27T11:01:52.435Z,93691.06
2019-01-27T11:04:48.992Z,93647.13
2019-01-27T11:07:57.151Z,93681.05
2019-01-27T11:10:47.463Z,93679.59
2019-01-27T11:13:40.456Z,93673.48
2019-01-27T11:16:31.907Z,93660.39
2019-01-27T11:19:10.977Z,93653.40
2019-01-27T11:22:01.131Z,93660.09
2019-01-27T11:24:57.537Z,93648.70
2019-01-27T11:27:53.513Z,93636.47
2019-01-27T11:30:42.479Z,93640.48
2019-01-27T11:33:25.734Z,93624.56
2019-01-27T11:36:14.993Z,93618.73
2019-01-27T11:39:23.742Z,93619.05
2019-01-27T11:42:19.780Z,93614.52
2019-01-27T11:44:52.218Z,93614.45
2019-01-27T11:47:38.924Z,93625.34
2019-01-27T11:50:18.163Z,93625.67
2019-01-27T11:53:08.679Z,93619.25
2019-01-27T11:55:39.756Z,93607.02
2019-01-27T11:58:10.922Z,93602.18
2019-01-27T12:00:46.215Z,93585.17
2019-01-27T12:03:17.461Z,93587.08
2019-01-27T12:05:48.724Z,93582.98
2019-01-27T12:08:19.707Z,93588.71
2019-01-27T12:10:50.698Z,93577.56
2019-01-27T12:13:21.748Z,93578.20
2019-01-27T12:15:52.906Z,93570.05
2019-01-27T12:18:24.067Z,93556.78
2019-01-27T12:20:55.698Z,93552.68
2019-01-27T12:23:26.824Z,93544.64
2019-01-27T12:25:57.905Z,93548.41
2019-01-27T12:28:29.039Z,93544.80
2019-01-27T12:31:00.169Z,93542.58
2019-01-27T12:33:31.310Z,93537.16
2019-01-27T12:36:02.454Z,93531.77
2019-01-27T12:38:33.602Z,93527.30
2019-01-27T12:41:04.828Z,93524.45
2019-01-27T12:43:35.901Z,93519.44
2019-01-27T12:46:07.041Z,93528.68
2019-01-27T12:48:38.182Z,93530.63
2019-01-27T12:51:09.237Z,93522.67
2019-01-27T12:53:40.349Z,93515.00
2019-01-27T12:56:11.485Z,93513.27
2019-01-27T12:58:42.462Z,93512.44
2019-01-27T13:01:14.076Z,93518.72
2019-01-27T13:03:46.938Z,93506.52
2019-01-27T13:06:18.036Z,93508.27
2019-01-27T13:08:49.111Z,93511.42
2019-01-27T13:11:20.248Z,93509.63
2019-01-27T13:13:51.233Z,93499.34
2019-01-27T13:16:23.076Z,93507.42
2019-01-27T13:18:54.141Z,93509.58
2019-01-27T13:21:25.286Z,93503.32
2019-01-27T13:23:56.433Z,93509.39
2019-01-27T13:26:27.852Z,93508.40
2019-01-27T13:28:59.010Z,93502.81
2019-01-27T13:31:31.311Z,93493.96
2019-01-27T13:34:02.544Z,93504.73
2019-01-27T13:36:35.371Z,93504.09
2019-01-27T13:39:08.748Z,93497.63
2019-01-27T13:41:39.875Z,93500.15
2019-01-27T13:44:11.106Z,93503.48
2019-01-27T13:46:42.152Z,93502.09
2019-01-27T13:49:13.291Z,93496.59
2019-01-27T13:51:44.425Z,93495.06
2019-01-27T13:54:15.531Z,93493.66
2019-01-27T13:56:46.665Z,93489.47
2019-01-27T13:59:19.263Z,93483.10
2019-01-27T14:01:50.291Z,93476.34
2019-01-27T14:04:21.807Z,93488.05
2019-01-27T14:06:53.138Z,93501.70
2019-01-27T14:09:24.296Z,93484.02
2019-01-27T14:11:55.440Z,93496.83
2019-01-27T14:14:26.558Z,93508.91
2019-01-27T14:16:58.434Z,93491.78
2019-01-27T14:19:29.642Z,93496.42
2019-01-27T14:22:00.743Z,93488.64
2019-01-27T14:24:31.843Z,93474.55
2019-01-27T14:27:02.895Z,93477.69
2019-01-27T14:29:34.165Z,93478.08
2019-01-27T14:32:05.508Z,93458.98
2019-01-27T14:34:36.543Z,93451.16
2019-01-27T14:37:07.722Z,93460.19
2019-01-27T14:39:38.730Z,93459.38
2019-01-27T14:42:09.879Z,93460.97
2019-01-27T14:44:40.961Z,93465.00
2019-01-27T14:47:12.141Z,93457.56
2019-01-27T14:49:43.188Z,93466.67
2019-01-27T14:52:14.334Z,93464.02
2019-01-27T14:54:45.378Z,93471.83
2019-01-27T14:57:16.630Z,93462.09
2019-01-27T14:59:47.686Z,93445.31
2019-01-27T15:02:18.924Z,93455.81
2019-01-27T15:04:49.995Z,93440.03
2019-01-27T15:07:21.164Z,93444.16
2019-01-27T15:09:52.157Z,93457.21
2019-01-27T15:12:23.514Z,93445.69
2019-01-27T15:14:54.580Z,93454.18
2019-01-27T15:17:26.511Z,93440.33
2019-01-27T15:19:57.662Z,93435.53
2019-01-27T15:22:28.813Z,93435.95
2019-01-27T15:24:59.890Z,93439.08
2019-01-27T15:27:31.096Z,93438.73
2019-01-27T15:30:02.327Z,93444.73
2019-01-27T15:32:33.685Z,93449.55
2019-01-27T15:35:05.308Z,93454.72
2019-01-27T15:37:36.493Z,93436.70
2019-01-27T15:40:08.791Z,93440.57
2019-01-27T15:42:41.180Z,93442.16
2019-01-27T15:45:15.198Z,93448.73
2019-01-27T15:47:48.449Z,93447.60
2019-01-27T15:50:21.560Z,93444.48
2019-01-27T15:52:52.836Z,93443.48
2019-01-27T15:55:23.962Z,93458.39
2019-01-27T15:57:55.100Z,93460.88
2019-01-27T16:00:28.420Z,93463.88
2019-01-27T16:03:00.062Z,93464.05
2019-01-27T16:05:31.355Z,93465.38
2019-01-27T16:08:02.635Z,93468.45
2019-01-27T16:10:33.770Z,93468.00
2019-01-27T16:13:05.223Z,93467.38
2019-01-27T16:15:36.379Z,93470.50
2019-01-27T16:18:07.726Z,93463.79
2019-01-27T16:20:39.115Z,93461.87
2019-01-27T16:23:29.266Z,93469.41
2019-01-27T16:26:01.485Z,93459.88
2019-01-27T16:28:32.635Z,93461.51
2019-01-27T16:31:28.997Z,93464.13
2019-01-27T16:34:22.508Z,93457.79
2019-01-27T16:36:53.720Z,93459.05
2019-01-27T16:39:25.047Z,93460.92
2019-01-27T16:41:56.107Z,93460.17
2019-01-27T16:44:27.376Z,93455.05
2019-01-27T16:46:58.396Z,93471.66
2019-01-27T16:49:29.577Z,93465.33
2019-01-27T16:52:00.728Z,93455.89
2019-01-27T16:54:32.328Z,93453.98
2019-01-27T16:57:03.527Z,93449.69
2019-01-27T16:59:34.537Z,93455.02
2019-01-27T17:02:05.889Z,93449.10
2019-01-27T17:04:36.955Z,93444.86
2019-01-27T17:07:08.008Z,93445.02
2019-01-27T17:09:39.161Z,93443.66
2019-01-27T17:12:10.561Z,93442.16
2019-01-27T17:14:41.690Z,93445.73
2019-01-27T17:17:12.906Z,93436.78
2019-01-27T17:19:44.527Z,93438.50
2019-01-27T17:22:15.752Z,93426.27
2019-01-27T17:24:47.787Z,93427.84
2019-01-27T17:27:18.845Z,93426.14
2019-01-27T17:29:49.885Z,93425.27
2019-01-27T17:32:20.992Z,93427.75
2019-01-27T17:34:51.988Z,93421.73
2019-01-27T17:37:23.149Z,93420.56
2019-01-27T17:39:54.279Z,93420.44
2019-01-27T17:42:25.507Z,93419.56
2019-01-27T17:44:56.663Z,93417.78
2019-01-27T17:47:27.735Z,93417.36
2019-01-27T17:49:58.806Z,93413.24
2019-01-27T17:52:29.858Z,93414.70
2019-01-27T17:55:01.494Z,93419.11
2019-01-27T17:58:03.611Z,93417.56
2019-01-27T18:00:56.327Z,93417.11
2019-01-27T18:03:39.558Z,93409.50
2019-01-27T18:06:19.260Z,93406.88
2019-01-27T18:09:09.951Z,93418.06
2019-01-27T18:11:45.315Z,93413.61
2019-01-27T18:14:23.411Z,93416.57
2019-01-27T18:16:55.716Z,93417.52
2019-01-27T18:19:26.775Z,93404.66
2019-01-27T18:21:58.183Z,93411.06
2019-01-27T18:24:29.350Z,93402.63
2019-01-27T18:27:00.595Z,93410.23
2019-01-27T18:29:31.734Z,93401.41
2019-01-27T18:32:02.994Z,93402.03
2019-01-27T18:34:34.025Z,93399.66
2019-01-27T18:37:06.241Z,93401.00
2019-01-27T18:39:37.331Z,93392.52
2019-01-27T18:42:08.691Z,93386.65
2019-01-27T18:44:39.837Z,93402.67
2019-01-27T18:47:10.986Z,93411.95
2019-01-27T18:49:42.007Z,93401.05
2019-01-27T18:52:13.130Z,93398.56
2019-01-27T18:55:03.198Z,93402.47
2019-01-27T18:57:48.176Z,93401.47
2019-01-27T19:00:38.295Z,93397.06
2019-01-27T19:03:14.122Z,93386.87
2019-01-27T19:05:59.488Z,93397.68
2019-01-27T19:08:39.342Z,93392.98
2019-01-27T19:11:30.212Z,93398.27
2019-01-27T19:14:38.790Z,93403.63
2019-01-27T19:17:19.315Z,93400.05
2019-01-27T19:19:58.271Z,93399.51
2019-01-27T19:22:51.005Z,93392.91
2019-01-27T19:25:44.184Z,93400.56
2019-01-27T19:28:49.285Z,93402.84
2019-01-27T19:31:26.696Z,93397.80
2019-01-27T19:34:22.472Z,93401.75
2019-01-27T19:37:04.948Z,93401.16
2019-01-27T19:39:56.094Z,93405.58
2019-01-27T19:42:53.090Z,93412.95
2019-01-27T19:45:49.252Z,93417.84
2019-01-27T19:48:29.919Z,93415.83
2019-01-27T19:51:14.535Z,93413.27
2019-01-27T19:54:12.640Z,93409.88
2019-01-27T19:56:56.750Z,93405.78
2019-01-27T19:59:45.640Z,93412.09
2019-01-27T20:02:35.623Z,93412.50
2019-01-27T20:05:26.107Z,93410.13
2019-01-27T20:08:28.255Z,93413.09
2019-01-27T20:11:18.310Z,93413.95
2019-01-27T20:14:08.445Z,93422.78
2019-01-27T20:16:59.977Z,93419.17
2019-01-27T20:19:48.221Z,93433.52
2019-01-27T20:22:30.831Z,93431.86
2019-01-27T20:25:09.430Z,93428.46
2019-01-27T20:28:08.706Z,93413.43
2019-01-27T20:31:01.653Z,93411.81
2019-01-27T20:33:50.659Z,93422.87
2019-01-27T20:36:40.796Z,93442.73
2019-01-27T20:39:33.814Z,93463.77
2019-01-27T20:42:30.535Z,93486.31
2019-01-27T20:45:19.306Z,93497.08
2019-01-27T20:48:01.200Z,93509.79
2019-01-27T20:50:44.529Z,93518.26
2019-01-27T20:53:26.384Z,93509.22
2019-01-27T20:56:05.257Z,93481.25
2019-01-27T20:58:57.166Z,93491.23
2019-01-27T21:01:50.177Z,93484.81
2019-01-27T21:04:30.074Z,93483.52
2019-01-27T21:07:22.200Z,93489.30
2019-01-27T21:10:18.139Z,93481.10
2019-01-27T21:13:15.200Z,93478.19
2019-01-27T21:15:51.858Z,93469.00
2019-01-27T21:18:27.732Z,93478.01
2019-01-27T21:20:58.799Z,93478.00
2019-01-27T21:23:31.599Z,93481.84
2019-01-27T21:26:02.728Z,93476.21
2019-01-27T21:28:33.857Z,93475.12
2019-01-27T21:31:06.547Z,93482.03
2019-01-27T21:33:39.153Z,93483.94
2019-01-27T21:36:10.377Z,93487.69
2019-01-27T21:38:41.489Z,93486.09
2019-01-27T21:41:12.631Z,93481.23
2019-01-27T21:43:43.737Z,93478.84
2019-01-27T21:46:14.867Z,93477.56
2019-01-27T21:48:46.062Z,93477.56
2019-01-27T21:51:17.217Z,93476.44
2019-01-27T21:53:48.242Z,93475.12
2019-01-27T21:56:19.382Z,93483.82
2019-01-27T21:58:50.455Z,93478.97
2019-01-27T22:01:25.478Z,93472.53
2019-01-27T22:03:54.638Z,93472.36
2019-01-27T22:06:28.459Z,93476.88
2019-01-27T22:08:59.537Z,93478.52
2019-01-27T22:11:30.839Z,93483.02
2019-01-27T22:14:01.891Z,93482.69
2019-01-27T22:16:32.931Z,93479.61
2019-01-27T22:19:04.021Z,93474.16
2019-01-27T22:21:35.145Z,93479.30
2019-01-27T22:24:06.217Z,93483.30
2019-01-27T22:26:37.355Z,93486.51
2019-01-27T22:29:08.520Z,93484.42
2019-01-27T22:31:39.642Z,93489.09
2019-01-27T22:34:10.795Z,93488.11
2019-01-27T22:36:41.915Z,93489.39
2019-01-27T22:39:13.088Z,93498.37
2019-01-27T22:41:44.300Z,93504.15
2019-01-27T22:44:15.320Z,93507.28
2019-01-27T22:46:46.765Z,93501.58
2019-01-27T22:49:17.840Z,93510.22
2019-01-27T22:51:48.899Z,93512.64
2019-01-27T22:54:20.047Z,93520.00
2019-01-27T22:56:51.109Z,93519.53
2019-01-27T22:59:22.297Z,93526.47
2019-01-27T23:01:53.536Z,93524.86
2019-01-27T23:04:24.691Z,93525.66
2019-01-27T23:06:56.414Z,93533.39
2019-01-27T23:09:30.034Z,93539.16
2019-01-27T23:12:01.759Z,93537.89
2019-01-27T23:14:32.890Z,93542.89
2019-01-27T23:17:04.145Z,93552.84
2019-01-27T23:19:35.379Z,93557.03
2019-01-27T23:22:06.490Z,93565.25
2019-01-27T23:24:37.786Z,93563.97
2019-01-27T23:27:08.917Z,93577.63
2019-01-27T23:29:40.184Z,93571.05
2019-01-27T23:32:11.459Z,93570.55
2019-01-27T23:34:42.573Z,93578.20
2019-01-27T23:37:13.805Z,93577.41
2019-01-27T23:39:44.816Z,93586.77
2019-01-27T23:42:15.982Z,93586.43
2019-01-27T23:44:46.976Z,93598.69
2019-01-27T23:47:18.214Z,93586.64
2019-01-27T23:49:49.350Z,93607.38
2019-01-27T23:52:20.485Z,93631.31
2019-01-27T23:54:51.684Z,93607.38
2019-01-27T23:57:22.729Z,93613.16
2019-01-27T23:59:53.958Z,93625.52
